sensor_id;sensor_type;location;lat;lon;timestamp;pressure;altitude;pressure_sealevel;temperature
21210;BMP180;10762;42.206;25.326;2024-03-29T00:01:08;99142.00;;;17.00
21210;BMP180;10762;42.206;25.326;2024-03-29T00:03:34;99151.00;;;16.90
21210;BMP180;10762;42.206;25.326;2024-03-29T00:06:00;99153.00;;;16.90
21210;BMP180;10762;42.206;25.326;2024-03-29T00:08:26;99160.00;;;16.80
21210;BMP180;10762;42.206;25.326;2024-03-29T00:10:52;99157.00;;;16.80
21210;BMP180;10762;42.206;25.326;2024-03-29T00:13:18;99145.00;;;16.70
21210;BMP180;10762;42.206;25.326;2024-03-29T00:15:48;99156.00;;;16.70
21210;BMP180;10762;42.206;25.326;2024-03-29T00:18:14;99155.00;;;16.60
21210;BMP180;10762;42.206;25.326;2024-03-29T00:20:40;99163.00;;;16.60
21210;BMP180;10762;42.206;25.326;2024-03-29T00:23:06;99163.00;;;16.70
21210;BMP180;10762;42.206;25.326;2024-03-29T00:25:32;99157.00;;;16.70
21210;BMP180;10762;42.206;25.326;2024-03-29T00:27:58;99155.00;;;16.70
21210;BMP180;10762;42.206;25.326;2024-03-29T00:30:24;99157.00;;;16.70
21210;BMP180;10762;42.206;25.326;2024-03-29T00:32:50;99167.00;;;16.70
21210;BMP180;10762;42.206;25.326;2024-03-29T00:35:16;99142.00;;;16.60
21210;BMP180;10762;42.206;25.326;2024-03-29T00:37:42;99158.00;;;16.50
21210;BMP180;10762;42.206;25.326;2024-03-29T00:40:08;99152.00;;;16.30
21210;BMP180;10762;42.206;25.326;2024-03-29T00:42:35;99155.00;;;16.10
21210;BMP180;10762;42.206;25.326;2024-03-29T00:45:01;99151.00;;;16.00
21210;BMP180;10762;42.206;25.326;2024-03-29T00:47:27;99150.00;;;15.90
21210;BMP180;10762;42.206;25.326;2024-03-29T00:49:53;99148.00;;;15.80
21210;BMP180;10762;42.206;25.326;2024-03-29T00:52:19;99157.00;;;15.80
21210;BMP180;10762;42.206;25.326;2024-03-29T00:54:45;99157.00;;;15.70
21210;BMP180;10762;42.206;25.326;2024-03-29T00:57:11;99155.00;;;15.70
21210;BMP180;10762;42.206;25.326;2024-03-29T00:59:39;99167.00;;;15.70
21210;BMP180;10762;42.206;25.326;2024-03-29T01:02:05;99159.00;;;15.60
21210;BMP180;10762;42.206;25.326;2024-03-29T01:04:31;99161.00;;;15.60
21210;BMP180;10762;42.206;25.326;2024-03-29T01:06:57;99185.00;;;15.50
21210;BMP180;10762;42.206;25.326;2024-03-29T01:09:23;99172.00;;;15.40
21210;BMP180;10762;42.206;25.326;2024-03-29T01:11:50;99174.00;;;15.40
21210;BMP180;10762;42.206;25.326;2024-03-29T01:14:16;99165.00;;;15.40
21210;BMP180;10762;42.206;25.326;2024-03-29T01:16:42;99161.00;;;15.40
21210;BMP180;10762;42.206;25.326;2024-03-29T01:19:08;99172.00;;;15.40
21210;BMP180;10762;42.206;25.326;2024-03-29T01:21:36;99166.00;;;15.30
21210;BMP180;10762;42.206;25.326;2024-03-29T01:24:02;99174.00;;;15.30
21210;BMP180;10762;42.206;25.326;2024-03-29T01:26:28;99175.00;;;15.20
21210;BMP180;10762;42.206;25.326;2024-03-29T01:28:54;99170.00;;;15.20
21210;BMP180;10762;42.206;25.326;2024-03-29T01:31:21;99174.00;;;15.20
21210;BMP180;10762;42.206;25.326;2024-03-29T01:33:48;99171.00;;;15.10
21210;BMP180;10762;42.206;25.326;2024-03-29T01:36:14;99172.00;;;15.10
21210;BMP180;10762;42.206;25.326;2024-03-29T01:38:40;99171.00;;;15.10
21210;BMP180;10762;42.206;25.326;2024-03-29T01:41:06;99173.00;;;15.10
21210;BMP180;10762;42.206;25.326;2024-03-29T01:43:32;99169.00;;;15.00
21210;BMP180;10762;42.206;25.326;2024-03-29T01:45:58;99178.00;;;15.00
21210;BMP180;10762;42.206;25.326;2024-03-29T01:48:25;99176.00;;;15.00
21210;BMP180;10762;42.206;25.326;2024-03-29T01:50:56;99179.00;;;14.90
21210;BMP180;10762;42.206;25.326;2024-03-29T01:53:22;99176.00;;;14.90
21210;BMP180;10762;42.206;25.326;2024-03-29T01:55:50;99188.00;;;14.90
21210;BMP180;10762;42.206;25.326;2024-03-29T01:58:16;99187.00;;;15.00
21210;BMP180;10762;42.206;25.326;2024-03-29T02:00:44;99190.00;;;15.00
21210;BMP180;10762;42.206;25.326;2024-03-29T02:03:15;99200.00;;;15.00
21210;BMP180;10762;42.206;25.326;2024-03-29T02:05:42;99199.00;;;15.00
21210;BMP180;10762;42.206;25.326;2024-03-29T02:08:09;99193.00;;;15.00
21210;BMP180;10762;42.206;25.326;2024-03-29T02:10:36;99202.00;;;15.10
21210;BMP180;10762;42.206;25.326;2024-03-29T02:13:02;99202.00;;;15.20
21210;BMP180;10762;42.206;25.326;2024-03-29T02:15:29;99205.00;;;15.20
21210;BMP180;10762;42.206;25.326;2024-03-29T02:17:55;99218.00;;;15.30
21210;BMP180;10762;42.206;25.326;2024-03-29T02:20:21;99212.00;;;15.30
21210;BMP180;10762;42.206;25.326;2024-03-29T02:22:54;99224.00;;;15.30
21210;BMP180;10762;42.206;25.326;2024-03-29T02:25:21;99227.00;;;15.20
21210;BMP180;10762;42.206;25.326;2024-03-29T02:27:47;99223.00;;;15.20
21210;BMP180;10762;42.206;25.326;2024-03-29T02:30:14;99231.00;;;15.10
21210;BMP180;10762;42.206;25.326;2024-03-29T02:32:43;99237.00;;;15.10
21210;BMP180;10762;42.206;25.326;2024-03-29T02:35:09;99242.00;;;15.10
21210;BMP180;10762;42.206;25.326;2024-03-29T02:37:35;99246.00;;;15.10
21210;BMP180;10762;42.206;25.326;2024-03-29T02:40:02;99241.00;;;15.20
21210;BMP180;10762;42.206;25.326;2024-03-29T02:42:29;99257.00;;;15.20
21210;BMP180;10762;42.206;25.326;2024-03-29T02:44:55;99258.00;;;15.10
21210;BMP180;10762;42.206;25.326;2024-03-29T02:47:23;99262.00;;;15.10
21210;BMP180;10762;42.206;25.326;2024-03-29T02:49:49;99271.00;;;15.00
21210;BMP180;10762;42.206;25.326;2024-03-29T02:52:15;99267.00;;;14.90
21210;BMP180;10762;42.206;25.326;2024-03-29T02:54:41;99266.00;;;14.90
21210;BMP180;10762;42.206;25.326;2024-03-29T02:57:07;99270.00;;;14.80
21210;BMP180;10762;42.206;25.326;2024-03-29T02:59:34;99277.00;;;14.80
21210;BMP180;10762;42.206;25.326;2024-03-29T03:02:00;99274.00;;;14.90
21210;BMP180;10762;42.206;25.326;2024-03-29T03:04:26;99290.00;;;15.00
21210;BMP180;10762;42.206;25.326;2024-03-29T03:06:52;99289.00;;;15.10
21210;BMP180;10762;42.206;25.326;2024-03-29T03:09:18;99289.00;;;15.10
21210;BMP180;10762;42.206;25.326;2024-03-29T03:12:03;99289.00;;;15.10
21210;BMP180;10762;42.206;25.326;2024-03-29T03:14:29;99298.00;;;15.10
21210;BMP180;10762;42.206;25.326;2024-03-29T03:16:55;99288.00;;;15.10
21210;BMP180;10762;42.206;25.326;2024-03-29T03:19:21;99297.00;;;15.00
21210;BMP180;10762;42.206;25.326;2024-03-29T03:21:47;99284.00;;;15.00
21210;BMP180;10762;42.206;25.326;2024-03-29T03:24:13;99292.00;;;15.00
21210;BMP180;10762;42.206;25.326;2024-03-29T03:26:40;99304.00;;;14.90
21210;BMP180;10762;42.206;25.326;2024-03-29T03:29:06;99307.00;;;14.90
21210;BMP180;10762;42.206;25.326;2024-03-29T03:31:33;99313.00;;;14.80
21210;BMP180;10762;42.206;25.326;2024-03-29T03:33:59;99313.00;;;14.80
21210;BMP180;10762;42.206;25.326;2024-03-29T03:36:25;99312.00;;;14.70
21210;BMP180;10762;42.206;25.326;2024-03-29T03:38:51;99324.00;;;14.70
21210;BMP180;10762;42.206;25.326;2024-03-29T03:41:17;99323.00;;;14.60
21210;BMP180;10762;42.206;25.326;2024-03-29T03:43:43;99328.00;;;14.50
21210;BMP180;10762;42.206;25.326;2024-03-29T03:46:09;99328.00;;;14.50
21210;BMP180;10762;42.206;25.326;2024-03-29T03:48:36;99325.00;;;14.40
21210;BMP180;10762;42.206;25.326;2024-03-29T03:51:02;99329.00;;;14.30
21210;BMP180;10762;42.206;25.326;2024-03-29T03:53:28;99334.00;;;14.30
21210;BMP180;10762;42.206;25.326;2024-03-29T03:55:54;99337.00;;;14.40
21210;BMP180;10762;42.206;25.326;2024-03-29T03:58:20;99344.00;;;14.40
21210;BMP180;10762;42.206;25.326;2024-03-29T04:00:46;99349.00;;;14.50
21210;BMP180;10762;42.206;25.326;2024-03-29T04:03:12;99353.00;;;14.50
21210;BMP180;10762;42.206;25.326;2024-03-29T04:05:38;99363.00;;;14.60
21210;BMP180;10762;42.206;25.326;2024-03-29T04:08:04;99359.00;;;14.60
21210;BMP180;10762;42.206;25.326;2024-03-29T04:10:30;99367.00;;;14.60
21210;BMP180;10762;42.206;25.326;2024-03-29T04:12:56;99360.00;;;14.60
21210;BMP180;10762;42.206;25.326;2024-03-29T04:15:22;99361.00;;;14.70
21210;BMP180;10762;42.206;25.326;2024-03-29T04:17:48;99375.00;;;14.70
21210;BMP180;10762;42.206;25.326;2024-03-29T04:20:14;99370.00;;;14.70
21210;BMP180;10762;42.206;25.326;2024-03-29T04:22:40;99378.00;;;14.80
21210;BMP180;10762;42.206;25.326;2024-03-29T04:25:06;99377.00;;;14.90
21210;BMP180;10762;42.206;25.326;2024-03-29T04:27:33;99374.00;;;15.00
21210;BMP180;10762;42.206;25.326;2024-03-29T04:29:59;99378.00;;;15.10
21210;BMP180;10762;42.206;25.326;2024-03-29T04:32:25;99384.00;;;15.20
21210;BMP180;10762;42.206;25.326;2024-03-29T04:34:51;99390.00;;;15.20
21210;BMP180;10762;42.206;25.326;2024-03-29T04:37:18;99391.00;;;15.30
21210;BMP180;10762;42.206;25.326;2024-03-29T04:39:45;99400.00;;;15.30
21210;BMP180;10762;42.206;25.326;2024-03-29T04:42:11;99402.00;;;15.30
21210;BMP180;10762;42.206;25.326;2024-03-29T04:44:37;99407.00;;;15.20
21210;BMP180;10762;42.206;25.326;2024-03-29T04:47:04;99408.00;;;15.20
21210;BMP180;10762;42.206;25.326;2024-03-29T04:49:30;99417.00;;;15.20
21210;BMP180;10762;42.206;25.326;2024-03-29T04:52:05;99416.00;;;15.30
21210;BMP180;10762;42.206;25.326;2024-03-29T04:54:34;99429.00;;;15.40
21210;BMP180;10762;42.206;25.326;2024-03-29T04:57:01;99440.00;;;15.50
21210;BMP180;10762;42.206;25.326;2024-03-29T04:59:28;99443.00;;;15.60
21210;BMP180;10762;42.206;25.326;2024-03-29T05:01:54;99445.00;;;15.70
21210;BMP180;10762;42.206;25.326;2024-03-29T05:04:22;99447.00;;;15.90
21210;BMP180;10762;42.206;25.326;2024-03-29T05:06:55;99443.00;;;16.10
21210;BMP180;10762;42.206;25.326;2024-03-29T05:09:21;99435.00;;;16.20
21210;BMP180;10762;42.206;25.326;2024-03-29T05:11:48;99439.00;;;16.40
21210;BMP180;10762;42.206;25.326;2024-03-29T05:14:15;99437.00;;;16.60
21210;BMP180;10762;42.206;25.326;2024-03-29T05:16:42;99447.00;;;16.80
21210;BMP180;10762;42.206;25.326;2024-03-29T05:19:08;99445.00;;;16.90
21210;BMP180;10762;42.206;25.326;2024-03-29T05:21:34;99457.00;;;17.10
21210;BMP180;10762;42.206;25.326;2024-03-29T05:24:00;99456.00;;;17.20
21210;BMP180;10762;42.206;25.326;2024-03-29T05:26:27;99458.00;;;17.40
21210;BMP180;10762;42.206;25.326;2024-03-29T05:28:53;99464.00;;;17.60
21210;BMP180;10762;42.206;25.326;2024-03-29T05:31:23;99465.00;;;17.70
21210;BMP180;10762;42.206;25.326;2024-03-29T05:33:50;99474.00;;;17.80
21210;BMP180;10762;42.206;25.326;2024-03-29T05:36:16;99470.00;;;18.00
21210;BMP180;10762;42.206;25.326;2024-03-29T05:38:42;99482.00;;;18.20
21210;BMP180;10762;42.206;25.326;2024-03-29T05:41:08;99480.00;;;18.40
21210;BMP180;10762;42.206;25.326;2024-03-29T05:43:34;99488.00;;;18.70
21210;BMP180;10762;42.206;25.326;2024-03-29T05:46:00;99488.00;;;18.90
21210;BMP180;10762;42.206;25.326;2024-03-29T05:48:27;99478.00;;;19.10
21210;BMP180;10762;42.206;25.326;2024-03-29T05:50:53;99476.00;;;19.30
21210;BMP180;10762;42.206;25.326;2024-03-29T05:53:19;99493.00;;;19.50
21210;BMP180;10762;42.206;25.326;2024-03-29T05:55:45;99486.00;;;19.70
21210;BMP180;10762;42.206;25.326;2024-03-29T05:58:11;99488.00;;;19.90
21210;BMP180;10762;42.206;25.326;2024-03-29T06:00:45;99491.00;;;20.10
21210;BMP180;10762;42.206;25.326;2024-03-29T06:03:11;99497.00;;;20.20
21210;BMP180;10762;42.206;25.326;2024-03-29T06:05:39;99497.00;;;20.30
21210;BMP180;10762;42.206;25.326;2024-03-29T06:08:05;99501.00;;;20.40
21210;BMP180;10762;42.206;25.326;2024-03-29T06:10:32;99504.00;;;20.50
21210;BMP180;10762;42.206;25.326;2024-03-29T06:12:58;99499.00;;;20.60
21210;BMP180;10762;42.206;25.326;2024-03-29T06:15:33;99514.00;;;20.60
21210;BMP180;10762;42.206;25.326;2024-03-29T06:18:18;99515.00;;;20.70
21210;BMP180;10762;42.206;25.326;2024-03-29T06:20:44;99526.00;;;20.90
21210;BMP180;10762;42.206;25.326;2024-03-29T06:23:10;99527.00;;;21.00
21210;BMP180;10762;42.206;25.326;2024-03-29T06:25:36;99528.00;;;21.00
21210;BMP180;10762;42.206;25.326;2024-03-29T06:28:03;99530.00;;;21.10
21210;BMP180;10762;42.206;25.326;2024-03-29T06:30:29;99530.00;;;21.20
21210;BMP180;10762;42.206;25.326;2024-03-29T06:32:55;99521.00;;;21.30
21210;BMP180;10762;42.206;25.326;2024-03-29T06:35:21;99521.00;;;21.40
21210;BMP180;10762;42.206;25.326;2024-03-29T06:37:47;99537.00;;;21.50
21210;BMP180;10762;42.206;25.326;2024-03-29T06:40:13;99536.00;;;21.50
21210;BMP180;10762;42.206;25.326;2024-03-29T06:42:40;99538.00;;;21.70
21210;BMP180;10762;42.206;25.326;2024-03-29T06:45:06;99532.00;;;21.80
21210;BMP180;10762;42.206;25.326;2024-03-29T06:47:32;99535.00;;;21.90
21210;BMP180;10762;42.206;25.326;2024-03-29T06:49:58;99538.00;;;22.00
21210;BMP180;10762;42.206;25.326;2024-03-29T06:52:24;99544.00;;;22.10
21210;BMP180;10762;42.206;25.326;2024-03-29T06:54:50;99547.00;;;22.30
21210;BMP180;10762;42.206;25.326;2024-03-29T06:57:17;99541.00;;;22.40
21210;BMP180;10762;42.206;25.326;2024-03-29T06:59:46;99550.00;;;22.60
21210;BMP180;10762;42.206;25.326;2024-03-29T07:02:12;99544.00;;;22.70
21210;BMP180;10762;42.206;25.326;2024-03-29T07:04:39;99557.00;;;22.80
21210;BMP180;10762;42.206;25.326;2024-03-29T07:07:05;99549.00;;;22.90
21210;BMP180;10762;42.206;25.326;2024-03-29T07:09:31;99557.00;;;23.00
21210;BMP180;10762;42.206;25.326;2024-03-29T07:11:57;99554.00;;;23.10
21210;BMP180;10762;42.206;25.326;2024-03-29T07:14:24;99564.00;;;23.30
21210;BMP180;10762;42.206;25.326;2024-03-29T07:16:52;99576.00;;;23.50
21210;BMP180;10762;42.206;25.326;2024-03-29T07:19:18;99578.00;;;23.60
21210;BMP180;10762;42.206;25.326;2024-03-29T07:21:45;99579.00;;;23.70
21210;BMP180;10762;42.206;25.326;2024-03-29T07:24:12;99567.00;;;23.70
21210;BMP180;10762;42.206;25.326;2024-03-29T07:26:38;99582.00;;;23.90
21210;BMP180;10762;42.206;25.326;2024-03-29T07:29:05;99579.00;;;24.00
21210;BMP180;10762;42.206;25.326;2024-03-29T07:31:31;99586.00;;;24.20
21210;BMP180;10762;42.206;25.326;2024-03-29T07:33:57;99579.00;;;24.30
21210;BMP180;10762;42.206;25.326;2024-03-29T07:36:23;99586.00;;;24.40
21210;BMP180;10762;42.206;25.326;2024-03-29T07:38:52;99587.00;;;24.50
21210;BMP180;10762;42.206;25.326;2024-03-29T07:41:18;99580.00;;;24.60
21210;BMP180;10762;42.206;25.326;2024-03-29T07:43:51;99587.00;;;24.70
21210;BMP180;10762;42.206;25.326;2024-03-29T07:46:18;99590.00;;;24.70
21210;BMP180;10762;42.206;25.326;2024-03-29T07:48:44;99592.00;;;24.80
21210;BMP180;10762;42.206;25.326;2024-03-29T07:51:10;99589.00;;;25.00
21210;BMP180;10762;42.206;25.326;2024-03-29T07:53:36;99589.00;;;25.10
21210;BMP180;10762;42.206;25.326;2024-03-29T07:56:02;99595.00;;;25.10
21210;BMP180;10762;42.206;25.326;2024-03-29T07:58:28;99589.00;;;25.20
21210;BMP180;10762;42.206;25.326;2024-03-29T08:00:54;99597.00;;;25.40
21210;BMP180;10762;42.206;25.326;2024-03-29T08:03:20;99606.00;;;25.60
21210;BMP180;10762;42.206;25.326;2024-03-29T08:05:59;99605.00;;;25.80
21210;BMP180;10762;42.206;25.326;2024-03-29T08:08:25;99615.00;;;25.90
21210;BMP180;10762;42.206;25.326;2024-03-29T08:10:53;99603.00;;;25.80
21210;BMP180;10762;42.206;25.326;2024-03-29T08:13:19;99607.00;;;25.90
21210;BMP180;10762;42.206;25.326;2024-03-29T08:15:47;99607.00;;;26.00
21210;BMP180;10762;42.206;25.326;2024-03-29T08:18:13;99594.00;;;26.10
21210;BMP180;10762;42.206;25.326;2024-03-29T08:20:39;99595.00;;;26.20
21210;BMP180;10762;42.206;25.326;2024-03-29T08:23:05;99593.00;;;26.30
21210;BMP180;10762;42.206;25.326;2024-03-29T08:25:31;99594.00;;;26.50
21210;BMP180;10762;42.206;25.326;2024-03-29T08:27:57;99607.00;;;26.60
21210;BMP180;10762;42.206;25.326;2024-03-29T08:30:27;99600.00;;;26.60
21210;BMP180;10762;42.206;25.326;2024-03-29T08:33:03;99603.00;;;26.60
21210;BMP180;10762;42.206;25.326;2024-03-29T08:35:29;99613.00;;;26.80
21210;BMP180;10762;42.206;25.326;2024-03-29T08:37:56;99601.00;;;26.90
21210;BMP180;10762;42.206;25.326;2024-03-29T08:40:22;99603.00;;;27.00
21210;BMP180;10762;42.206;25.326;2024-03-29T08:42:48;99602.00;;;27.30
21210;BMP180;10762;42.206;25.326;2024-03-29T08:45:14;99603.00;;;27.30
21210;BMP180;10762;42.206;25.326;2024-03-29T08:47:40;99602.00;;;27.30
21210;BMP180;10762;42.206;25.326;2024-03-29T08:50:06;99604.00;;;27.40
21210;BMP180;10762;42.206;25.326;2024-03-29T08:52:32;99607.00;;;27.60
21210;BMP180;10762;42.206;25.326;2024-03-29T08:54:58;99605.00;;;27.70
21210;BMP180;10762;42.206;25.326;2024-03-29T08:57:24;99609.00;;;27.70
21210;BMP180;10762;42.206;25.326;2024-03-29T08:59:50;99610.00;;;27.80
21210;BMP180;10762;42.206;25.326;2024-03-29T09:02:16;99611.00;;;27.90
21210;BMP180;10762;42.206;25.326;2024-03-29T09:04:43;99602.00;;;27.80
21210;BMP180;10762;42.206;25.326;2024-03-29T09:07:09;99606.00;;;27.90
21210;BMP180;10762;42.206;25.326;2024-03-29T09:09:35;99598.00;;;27.90
21210;BMP180;10762;42.206;25.326;2024-03-29T09:12:01;99605.00;;;28.00
21210;BMP180;10762;42.206;25.326;2024-03-29T09:14:27;99598.00;;;28.40
21210;BMP180;10762;42.206;25.326;2024-03-29T09:16:53;99598.00;;;28.50
21210;BMP180;10762;42.206;25.326;2024-03-29T09:19:19;99600.00;;;28.60
21210;BMP180;10762;42.206;25.326;2024-03-29T09:21:45;99594.00;;;28.60
21210;BMP180;10762;42.206;25.326;2024-03-29T09:24:11;99585.00;;;28.50
21210;BMP180;10762;42.206;25.326;2024-03-29T09:26:38;99582.00;;;28.50
21210;BMP180;10762;42.206;25.326;2024-03-29T09:29:06;99588.00;;;28.50
21210;BMP180;10762;42.206;25.326;2024-03-29T09:31:32;99583.00;;;28.40
21210;BMP180;10762;42.206;25.326;2024-03-29T09:33:58;99589.00;;;28.40
21210;BMP180;10762;42.206;25.326;2024-03-29T09:36:24;99580.00;;;28.30
21210;BMP180;10762;42.206;25.326;2024-03-29T09:38:50;99572.00;;;28.40
21210;BMP180;10762;42.206;25.326;2024-03-29T09:41:17;99578.00;;;28.40
21210;BMP180;10762;42.206;25.326;2024-03-29T09:43:45;99565.00;;;28.50
21210;BMP180;10762;42.206;25.326;2024-03-29T09:46:15;99563.00;;;28.60
21210;BMP180;10762;42.206;25.326;2024-03-29T09:48:44;99561.00;;;28.70
21210;BMP180;10762;42.206;25.326;2024-03-29T09:51:14;99550.00;;;28.70
21210;BMP180;10762;42.206;25.326;2024-03-29T09:53:41;99555.00;;;28.80
21210;BMP180;10762;42.206;25.326;2024-03-29T09:56:08;99564.00;;;28.90
21210;BMP180;10762;42.206;25.326;2024-03-29T09:58:35;99553.00;;;29.00
21210;BMP180;10762;42.206;25.326;2024-03-29T10:01:02;99543.00;;;29.10
21210;BMP180;10762;42.206;25.326;2024-03-29T10:03:29;99553.00;;;29.30
21210;BMP180;10762;42.206;25.326;2024-03-29T10:05:56;99541.00;;;29.30
21210;BMP180;10762;42.206;25.326;2024-03-29T10:08:22;99546.00;;;29.30
21210;BMP180;10762;42.206;25.326;2024-03-29T10:10:49;99535.00;;;29.40
21210;BMP180;10762;42.206;25.326;2024-03-29T10:13:15;99544.00;;;29.50
21210;BMP180;10762;42.206;25.326;2024-03-29T10:15:41;99537.00;;;29.60
21210;BMP180;10762;42.206;25.326;2024-03-29T10:18:13;99529.00;;;29.50
21210;BMP180;10762;42.206;25.326;2024-03-29T10:20:39;99531.00;;;29.60
21210;BMP180;10762;42.206;25.326;2024-03-29T10:23:05;99537.00;;;29.70
21210;BMP180;10762;42.206;25.326;2024-03-29T10:25:33;99532.00;;;29.60
21210;BMP180;10762;42.206;25.326;2024-03-29T10:28:00;99526.00;;;29.50
21210;BMP180;10762;42.206;25.326;2024-03-29T10:30:29;99517.00;;;29.40
21210;BMP180;10762;42.206;25.326;2024-03-29T10:32:56;99517.00;;;29.40
21210;BMP180;10762;42.206;25.326;2024-03-29T10:35:24;99506.00;;;29.50
21210;BMP180;10762;42.206;25.326;2024-03-29T10:37:52;99502.00;;;29.70
21210;BMP180;10762;42.206;25.326;2024-03-29T10:40:18;99498.00;;;29.80
21210;BMP180;10762;42.206;25.326;2024-03-29T10:42:46;99502.00;;;29.80
21210;BMP180;10762;42.206;25.326;2024-03-29T10:45:14;99501.00;;;29.70
21210;BMP180;10762;42.206;25.326;2024-03-29T10:47:41;99492.00;;;29.70
21210;BMP180;10762;42.206;25.326;2024-03-29T10:50:10;99488.00;;;29.70
21210;BMP180;10762;42.206;25.326;2024-03-29T10:52:38;99485.00;;;29.90
21210;BMP180;10762;42.206;25.326;2024-03-29T10:55:07;99481.00;;;30.10
21210;BMP180;10762;42.206;25.326;2024-03-29T10:57:33;99479.00;;;30.40
21210;BMP180;10762;42.206;25.326;2024-03-29T11:04:58;99468.00;;;30.90
21210;BMP180;10762;42.206;25.326;2024-03-29T11:07:28;99474.00;;;30.80
21210;BMP180;10762;42.206;25.326;2024-03-29T11:09:56;99472.00;;;30.70
21210;BMP180;10762;42.206;25.326;2024-03-29T11:12:23;99469.00;;;30.70
21210;BMP180;10762;42.206;25.326;2024-03-29T11:14:53;99472.00;;;30.70
21210;BMP180;10762;42.206;25.326;2024-03-29T11:17:21;99474.00;;;30.90
21210;BMP180;10762;42.206;25.326;2024-03-29T11:19:48;99469.00;;;30.90
21210;BMP180;10762;42.206;25.326;2024-03-29T11:22:14;99472.00;;;31.10
21210;BMP180;10762;42.206;25.326;2024-03-29T11:24:40;99476.00;;;31.00
21210;BMP180;10762;42.206;25.326;2024-03-29T11:27:08;99466.00;;;30.90
21210;BMP180;10762;42.206;25.326;2024-03-29T11:29:34;99466.00;;;30.90
21210;BMP180;10762;42.206;25.326;2024-03-29T11:32:06;99458.00;;;30.80
21210;BMP180;10762;42.206;25.326;2024-03-29T11:34:32;99459.00;;;30.90
21210;BMP180;10762;42.206;25.326;2024-03-29T11:37:14;99452.00;;;30.90
21210;BMP180;10762;42.206;25.326;2024-03-29T11:39:41;99450.00;;;31.00
21210;BMP180;10762;42.206;25.326;2024-03-29T11:42:12;99451.00;;;31.30
21210;BMP180;10762;42.206;25.326;2024-03-29T11:44:38;99439.00;;;31.50
21210;BMP180;10762;42.206;25.326;2024-03-29T11:47:04;99445.00;;;31.60
21210;BMP180;10762;42.206;25.326;2024-03-29T11:49:32;99452.00;;;31.50
21210;BMP180;10762;42.206;25.326;2024-03-29T11:52:05;99445.00;;;31.40
21210;BMP180;10762;42.206;25.326;2024-03-29T11:54:38;99451.00;;;31.20
21210;BMP180;10762;42.206;25.326;2024-03-29T11:57:04;99437.00;;;31.10
21210;BMP180;10762;42.206;25.326;2024-03-29T11:59:30;99438.00;;;31.10
21210;BMP180;10762;42.206;25.326;2024-03-29T12:01:56;99443.00;;;31.30
21210;BMP180;10762;42.206;25.326;2024-03-29T12:04:22;99446.00;;;31.50
21210;BMP180;10762;42.206;25.326;2024-03-29T12:06:49;99440.00;;;31.60
21210;BMP180;10762;42.206;25.326;2024-03-29T12:09:15;99444.00;;;31.80
21210;BMP180;10762;42.206;25.326;2024-03-29T12:11:44;99442.00;;;32.00
21210;BMP180;10762;42.206;25.326;2024-03-29T12:14:13;99443.00;;;32.00
21210;BMP180;10762;42.206;25.326;2024-03-29T12:16:45;99439.00;;;32.10
21210;BMP180;10762;42.206;25.326;2024-03-29T12:19:21;99436.00;;;32.10
21210;BMP180;10762;42.206;25.326;2024-03-29T12:21:47;99433.00;;;32.10
21210;BMP180;10762;42.206;25.326;2024-03-29T12:24:13;99434.00;;;32.10
21210;BMP180;10762;42.206;25.326;2024-03-29T12:26:40;99436.00;;;32.20
21210;BMP180;10762;42.206;25.326;2024-03-29T12:29:07;99433.00;;;32.30
21210;BMP180;10762;42.206;25.326;2024-03-29T12:31:33;99422.00;;;32.30
21210;BMP180;10762;42.206;25.326;2024-03-29T12:33:59;99420.00;;;32.40
21210;BMP180;10762;42.206;25.326;2024-03-29T12:36:25;99422.00;;;32.30
21210;BMP180;10762;42.206;25.326;2024-03-29T12:38:55;99420.00;;;32.40
21210;BMP180;10762;42.206;25.326;2024-03-29T12:41:24;99424.00;;;32.40
21210;BMP180;10762;42.206;25.326;2024-03-29T12:43:51;99420.00;;;32.30
21210;BMP180;10762;42.206;25.326;2024-03-29T12:46:17;99417.00;;;32.40
21210;BMP180;10762;42.206;25.326;2024-03-29T12:48:43;99428.00;;;32.40
21210;BMP180;10762;42.206;25.326;2024-03-29T12:51:09;99424.00;;;32.40
21210;BMP180;10762;42.206;25.326;2024-03-29T12:53:37;99424.00;;;32.30
21210;BMP180;10762;42.206;25.326;2024-03-29T12:56:04;99432.00;;;32.30
21210;BMP180;10762;42.206;25.326;2024-03-29T12:58:30;99429.00;;;32.20
21210;BMP180;10762;42.206;25.326;2024-03-29T13:00:56;99428.00;;;32.20
21210;BMP180;10762;42.206;25.326;2024-03-29T13:03:23;99427.00;;;32.10
21210;BMP180;10762;42.206;25.326;2024-03-29T13:05:49;99421.00;;;32.10
21210;BMP180;10762;42.206;25.326;2024-03-29T13:08:15;99423.00;;;32.00
21210;BMP180;10762;42.206;25.326;2024-03-29T13:10:42;99434.00;;;32.00
21210;BMP180;10762;42.206;25.326;2024-03-29T13:13:08;99434.00;;;31.80
21210;BMP180;10762;42.206;25.326;2024-03-29T13:15:35;99437.00;;;31.70
21210;BMP180;10762;42.206;25.326;2024-03-29T13:18:02;99431.00;;;31.60
21210;BMP180;10762;42.206;25.326;2024-03-29T13:20:29;99429.00;;;31.50
21210;BMP180;10762;42.206;25.326;2024-03-29T13:22:56;99429.00;;;31.50
21210;BMP180;10762;42.206;25.326;2024-03-29T13:25:23;99438.00;;;31.50
21210;BMP180;10762;42.206;25.326;2024-03-29T13:27:50;99436.00;;;31.50
21210;BMP180;10762;42.206;25.326;2024-03-29T13:30:21;99430.00;;;31.50
21210;BMP180;10762;42.206;25.326;2024-03-29T13:32:47;99434.00;;;31.50
21210;BMP180;10762;42.206;25.326;2024-03-29T13:35:14;99430.00;;;31.50
21210;BMP180;10762;42.206;25.326;2024-03-29T13:37:41;99425.00;;;31.50
21210;BMP180;10762;42.206;25.326;2024-03-29T13:40:11;99430.00;;;31.40
21210;BMP180;10762;42.206;25.326;2024-03-29T13:42:37;99433.00;;;31.20
21210;BMP180;10762;42.206;25.326;2024-03-29T13:45:04;99428.00;;;31.10
21210;BMP180;10762;42.206;25.326;2024-03-29T13:47:34;99430.00;;;31.00
21210;BMP180;10762;42.206;25.326;2024-03-29T13:50:00;99431.00;;;31.00
21210;BMP180;10762;42.206;25.326;2024-03-29T13:52:27;99419.00;;;30.90
21210;BMP180;10762;42.206;25.326;2024-03-29T13:54:53;99421.00;;;30.70
21210;BMP180;10762;42.206;25.326;2024-03-29T13:57:19;99418.00;;;30.60
21210;BMP180;10762;42.206;25.326;2024-03-29T13:59:45;99416.00;;;30.60